Time;durP1;ratioP1;P1;durP2;ratioP2;P2;SDS_P1;SDS_P2;PMS_P1;PMS_P2;Temp;Humidity;BMP_temperature;BMP_pressure;BME280_temperature;BME280_humidity;BME280_pressure;Samples;Min_cycle;Max_cycle;Signal;HPM_P1;HPM_P2
2020/12/23 00:01:07;;;;;;;6.00;4.47;;;;;;;9.48;81.79;99742.34;124485;1099;104615;-75
2020/12/23 00:03:40;;;;;;;7.23;4.80;;;;;;;9.44;81.59;99747.14;124552;1098;104507;-75
2020/12/23 00:06:08;;;;;;;5.73;4.77;;;;;;;9.40;81.61;99755.61;124464;1098;104602;-75
2020/12/23 00:08:36;;;;;;;6.67;4.70;;;;;;;9.36;81.54;99762.25;124508;1098;104522;-75
2020/12/23 00:11:04;;;;;;;6.30;4.70;;;;;;;9.29;81.02;99759.36;124502;1098;104666;-76
2020/12/23 00:13:33;;;;;;;7.80;5.50;;;;;;;9.24;81.32;99770.50;124540;1099;104588;-76
2020/12/23 00:16:01;;;;;;;9.30;6.20;;;;;;;9.19;80.76;99777.28;124498;1099;104503;-75
2020/12/23 00:18:30;;;;;;;11.77;8.73;;;;;;;9.14;81.08;99766.25;124554;1098;104528;-75
2020/12/23 00:20:58;;;;;;;9.27;6.47;;;;;;;9.11;80.44;99777.23;124594;1098;104613;-75
2020/12/23 00:23:26;;;;;;;7.60;5.50;;;;;;;9.08;80.94;99788.17;124608;1098;104497;-74
2020/12/23 00:25:54;;;;;;;11.47;8.10;;;;;;;9.06;80.76;99787.49;124516;1098;104615;-75
2020/12/23 00:28:22;;;;;;;9.37;6.40;;;;;;;9.04;80.26;99779.66;124425;1098;104493;-73
2020/12/23 00:30:50;;;;;;;16.90;10.30;;;;;;;9.01;80.58;99788.80;124515;1099;104571;-74
2020/12/23 00:33:18;;;;;;;15.13;7.40;;;;;;;9.01;80.09;99794.13;124502;1098;104529;-73
2020/12/23 00:35:46;;;;;;;14.10;7.43;;;;;;;8.98;79.76;99798.91;124481;1098;104493;-74
2020/12/23 00:38:14;;;;;;;9.87;6.27;;;;;;;8.95;80.15;99799.20;124486;1099;104609;-76
2020/12/23 00:40:42;;;;;;;8.10;5.30;;;;;;;8.90;80.10;99812.98;124523;1098;104654;-75
2020/12/23 00:43:10;;;;;;;7.87;5.43;;;;;;;8.89;80.46;99821.97;124548;1098;104568;-76
2020/12/23 00:45:39;;;;;;;8.33;5.60;;;;;;;8.89;80.18;99837.07;124531;1099;104606;-74
2020/12/23 00:48:08;;;;;;;5.10;4.47;;;;;;;8.86;80.07;99832.91;124489;1098;104576;-74
2020/12/23 00:50:36;;;;;;;6.57;3.87;;;;;;;8.82;79.84;99815.58;124442;1098;104768;-73
2020/12/23 00:53:04;;;;;;;4.80;3.57;;;;;;;8.79;79.87;99826.51;124332;1098;104608;-74
2020/12/23 00:55:33;;;;;;;4.07;2.90;;;;;;;8.74;79.54;99837.62;124479;1099;104583;-73
2020/12/23 00:58:01;;;;;;;5.47;2.80;;;;;;;8.71;79.67;99839.74;124456;1098;104589;-73
2020/12/23 01:00:29;;;;;;;3.00;2.40;;;;;;;8.67;79.63;99843.70;124571;1098;104662;-74
2020/12/23 01:02:57;;;;;;;3.07;2.40;;;;;;;8.61;79.55;99847.80;124538;1098;104598;-74
2020/12/23 01:05:25;;;;;;;3.20;2.50;;;;;;;8.57;79.52;99860.55;124468;1098;104612;-74
2020/12/23 01:07:53;;;;;;;4.45;2.25;;;;;;;8.53;79.58;99856.52;124500;1098;104526;-74
2020/12/23 01:10:21;;;;;;;2.70;2.33;;;;;;;8.54;80.00;99860.01;124460;1098;105185;-74
2020/12/23 01:12:49;;;;;;;3.70;2.40;;;;;;;8.53;79.35;99858.35;124514;1099;104592;-74
2020/12/23 01:15:18;;;;;;;2.60;2.10;;;;;;;8.51;79.43;99855.84;124565;1098;104529;-74
2020/12/23 01:17:46;;;;;;;3.20;2.13;;;;;;;8.49;79.22;99852.48;124538;1098;104605;-74
2020/12/23 01:20:14;;;;;;;2.27;1.67;;;;;;;8.49;79.72;99852.48;124473;1098;104618;-74
2020/12/23 01:22:42;;;;;;;3.35;2.40;;;;;;;8.51;79.53;99852.34;124559;1098;104554;-73
2020/12/23 01:25:10;;;;;;;4.63;2.47;;;;;;;8.54;79.52;99858.17;124450;1098;104656;-73
2020/12/23 01:27:38;;;;;;;3.03;2.20;;;;;;;8.55;79.06;99861.69;124444;1098;104589;-73
2020/12/23 01:30:06;;;;;;;2.87;2.03;;;;;;;8.54;79.36;99855.52;124502;1098;104605;-74
2020/12/23 01:32:34;;;;;;;2.77;2.33;;;;;;;8.54;79.13;99863.49;124468;1098;104564;-75
2020/12/23 01:35:02;;;;;;;4.03;2.20;;;;;;;8.54;79.27;99860.01;124555;1098;104541;-73
2020/12/23 01:37:31;;;;;;;6.70;4.70;;;;;;;8.52;79.20;99854.83;124510;1098;104525;-73
2020/12/23 01:39:59;;;;;;;4.80;3.50;;;;;;;8.51;78.98;99861.16;124516;1098;104634;-73
2020/12/23 01:42:27;;;;;;;4.10;3.00;;;;;;;8.52;79.32;99852.17;124502;1098;104555;-73
2020/12/23 01:44:55;;;;;;;3.30;1.90;;;;;;;8.51;79.07;99842.54;124532;1098;104523;-72
2020/12/23 01:47:24;;;;;;;2.90;1.97;;;;;;;8.51;78.91;99855.00;124441;1098;104654;-74
2020/12/23 01:49:52;;;;;;;4.47;1.93;;;;;;;8.50;78.79;99856.80;124503;1098;104698;-75
2020/12/23 01:52:21;;;;;;;4.57;2.33;;;;;;;8.50;78.99;99864.78;124503;1098;104568;-74
2020/12/23 01:54:50;;;;;;;3.17;2.30;;;;;;;8.47;79.24;99862.44;124501;1098;104685;-73
2020/12/23 01:57:18;;;;;;;2.40;1.70;;;;;;;8.45;78.96;99867.91;124477;1098;104519;-73
2020/12/23 01:59:48;;;;;;;3.33;1.90;;;;;;;8.42;78.82;99859.38;124436;1099;104625;-74
2020/12/23 02:02:34;;;;;;;3.00;2.10;;;;;;;8.42;78.61;99862.04;124532;1099;104586;-76
2020/12/23 02:05:05;;;;;;;3.40;2.00;;;;;;;8.44;77.99;99852.09;124541;1098;104506;-74
2020/12/23 02:07:34;;;;;;;3.27;2.10;;;;;;;8.44;78.59;99863.55;124561;1099;104523;-74
2020/12/23 02:10:04;;;;;;;3.40;2.27;;;;;;;8.45;78.52;99857.27;124524;1098;104519;-73
2020/12/23 02:12:32;;;;;;;3.33;1.70;;;;;;;8.44;78.93;99855.58;124504;1098;104516;-73
2020/12/23 02:15:10;;;;;;;3.20;1.80;;;;;;;8.45;78.72;99867.07;124422;1098;104535;-74
2020/12/23 02:17:38;;;;;;;3.97;2.47;;;;;;;8.44;78.30;99863.55;124510;1098;104949;-72
2020/12/23 02:20:08;;;;;;;3.80;2.27;;;;;;;8.44;78.40;99876.02;124493;1098;104656;-72
2020/12/23 02:22:36;;;;;;;6.50;3.80;;;;;;;8.44;78.41;99886.66;124583;1098;104553;-73
2020/12/23 02:25:06;;;;;;;4.90;2.87;;;;;;;8.40;78.07;99886.08;124502;1098;104599;-73
2020/12/23 02:27:34;;;;;;;7.80;3.50;;;;;;;8.36;78.50;99889.19;124609;1098;104522;-73
2020/12/23 02:30:04;;;;;;;6.97;3.07;;;;;;;8.34;78.58;99896.48;124473;1098;104682;-72
2020/12/23 02:32:32;;;;;;;7.90;3.70;;;;;;;8.34;78.18;99901.80;124529;1099;104602;-72
2020/12/23 02:35:01;;;;;;;5.83;2.50;;;;;;;8.29;78.02;99902.22;124501;1099;104633;-73
2020/12/23 02:37:29;;;;;;;6.23;2.27;;;;;;;8.26;77.91;99906.02;124531;1098;105108;-74
2020/12/23 02:39:57;;;;;;;3.13;1.77;;;;;;;8.25;78.11;99887.55;124491;1098;104627;-73
2020/12/23 02:42:25;;;;;;;4.83;1.87;;;;;;;8.23;77.76;99892.19;124549;1099;104561;-74
2020/12/23 02:44:55;;;;;;;3.40;1.65;;;;;;;8.19;78.41;99882.83;124478;1098;104600;-73
2020/12/23 02:47:24;;;;;;;2.30;1.60;;;;;;;8.18;78.30;99879.34;124561;1098;104522;-73
2020/12/23 02:49:52;;;;;;;2.27;1.53;;;;;;;8.15;77.57;99876.97;124488;1098;104645;-72
2020/12/23 02:52:20;;;;;;;3.87;1.80;;;;;;;8.15;77.42;99892.09;124487;1098;104701;-73
2020/12/23 02:54:48;;;;;;;3.50;2.23;;;;;;;8.11;77.83;99896.02;124458;1098;104637;-72
2020/12/23 02:57:16;;;;;;;4.00;2.20;;;;;;;8.10;77.77;99899.65;124448;1098;104522;-72
2020/12/23 02:59:44;;;;;;;4.45;2.55;;;;;;;8.11;77.71;99901.34;124532;1098;104648;-72
2020/12/23 03:02:12;;;;;;;4.50;2.50;;;;;;;8.13;78.10;99905.52;124453;1098;104540;-74
2020/12/23 03:04:40;;;;;;;4.33;1.93;;;;;;;8.16;77.94;99894.60;124428;1099;104503;-73
2020/12/23 03:07:08;;;;;;;3.50;2.07;;;;;;;8.17;78.12;99901.58;124453;1098;104974;-73
2020/12/23 03:09:36;;;;;;;3.90;2.30;;;;;;;8.17;78.14;99906.89;124497;1098;104580;-73
2020/12/23 03:12:04;;;;;;;3.93;2.00;;;;;;;8.16;77.80;99905.23;124419;1098;104512;-73
2020/12/23 03:14:32;;;;;;;4.20;2.10;;;;;;;8.14;77.33;99901.89;124459;1098;104618;-72
2020/12/23 03:17:00;;;;;;;3.40;1.90;;;;;;;8.09;77.58;99903.30;124443;1098;104504;-72
2020/12/23 03:19:28;;;;;;;3.37;1.90;;;;;;;8.04;77.39;99896.61;124472;1098;104600;-73
2020/12/23 03:21:57;;;;;;;4.23;2.23;;;;;;;7.98;77.36;99899.00;124455;1098;104597;-72
2020/12/23 03:24:25;;;;;;;3.30;1.80;;;;;;;7.93;77.51;99904.76;124392;1099;104586;-72
2020/12/23 03:26:53;;;;;;;4.40;1.70;;;;;;;7.92;77.33;99907.55;124406;1098;104607;-72
2020/12/23 03:29:21;;;;;;;3.23;1.73;;;;;;;7.93;77.71;99922.49;124459;1099;104595;-72
2020/12/23 03:31:49;;;;;;;5.00;2.47;;;;;;;7.98;77.44;99925.56;124460;1099;104563;-72
2020/12/23 03:34:17;;;;;;;4.70;2.10;;;;;;;8.01;78.03;99919.97;124512;1098;104531;-72
2020/12/23 03:36:45;;;;;;;3.85;2.00;;;;;;;8.03;77.19;99926.81;124479;1098;104583;-73
2020/12/23 03:39:13;;;;;;;3.03;1.70;;;;;;;8.00;77.19;99920.94;124530;1098;104605;-74
2020/12/23 03:41:41;;;;;;;8.70;3.10;;;;;;;7.97;77.19;99926.56;124415;1098;105051;-74
2020/12/23 03:44:10;;;;;;;13.97;5.40;;;;;;;7.93;77.25;99928.66;124474;1098;104567;-74
2020/12/23 03:46:38;;;;;;;7.50;2.93;;;;;;;7.92;77.39;99923.49;124273;1098;104580;-74
2020/12/23 03:49:06;;;;;;;4.67;2.30;;;;;;;7.92;77.54;99924.32;124462;1098;104702;-74
2020/12/23 03:51:34;;;;;;;5.40;2.60;;;;;;;7.94;77.93;99921.52;124512;1098;104695;-74
2020/12/23 03:54:02;;;;;;;4.60;2.40;;;;;;;7.93;77.43;99910.07;124417;1099;104596;-74
2020/12/23 03:56:30;;;;;;;3.10;1.77;;;;;;;7.97;77.58;99916.77;124513;1098;104932;-73
2020/12/23 03:58:58;;;;;;;3.97;1.70;;;;;;;7.97;77.47;99932.70;124519;1098;104685;-73
2020/12/23 04:01:26;;;;;;;2.40;1.65;;;;;;;7.99;77.44;99919.28;124478;1098;104632;-72
2020/12/23 04:03:54;;;;;;;3.23;2.03;;;;;;;7.99;77.44;99921.94;124470;1099;104611;-72
2020/12/23 04:06:22;;;;;;;4.00;2.13;;;;;;;8.02;77.70;99933.09;124482;1098;104989;-73
2020/12/23 04:08:50;;;;;;;2.93;2.00;;;;;;;8.02;77.50;99932.27;124439;1098;104571;-74
2020/12/23 04:11:19;;;;;;;4.87;2.10;;;;;;;8.05;77.21;99929.33;124506;1098;104621;-74
2020/12/23 04:13:47;;;;;;;3.47;2.20;;;;;;;8.03;77.21;99936.61;124368;1098;104535;-73
2020/12/23 04:16:15;;;;;;;3.20;2.17;;;;;;;8.03;77.00;99936.61;124494;1098;104602;-73
2020/12/23 04:18:43;;;;;;;4.20;2.25;;;;;;;8.02;77.62;99945.55;124532;1098;104934;-73
2020/12/23 04:21:11;;;;;;;4.03;2.40;;;;;;;8.00;77.00;99936.88;124398;1098;105074;-74
2020/12/23 04:23:39;;;;;;;5.60;2.80;;;;;;;7.98;77.43;99937.02;124670;1092;104871;-72
2020/12/23 04:26:07;;;;;;;6.40;3.70;;;;;;;7.93;77.15;99941.09;124501;1093;104576;-72
2020/12/23 04:28:36;;;;;;;5.40;3.10;;;;;;;7.94;76.78;99938.30;124502;1093;104590;-72
2020/12/23 04:31:04;;;;;;;8.33;2.90;;;;;;;7.96;76.70;99938.98;124440;1099;104570;-72
2020/12/23 04:33:32;;;;;;;6.60;3.30;;;;;;;7.93;77.06;99941.09;124513;1098;104605;-74
2020/12/23 04:36:00;;;;;;;4.50;2.40;;;;;;;7.91;76.32;99935.95;124518;1099;104980;-75
2020/12/23 04:38:29;;;;;;;5.07;2.50;;;;;;;7.89;76.69;99942.36;124510;1099;104652;-74
2020/12/23 04:40:58;;;;;;;4.20;2.20;;;;;;;7.86;76.37;99951.47;124482;1098;104603;-72
2020/12/23 04:43:26;;;;;;;4.50;2.80;;;;;;;7.83;76.06;99949.94;124469;1098;104586;-72
2020/12/23 04:45:56;;;;;;;3.37;1.80;;;;;;;7.81;76.66;99949.25;124455;1098;104525;-72
2020/12/23 04:48:27;;;;;;;3.67;1.87;;;;;;;7.84;76.83;99948.95;124464;1098;104651;-71
2020/12/23 04:50:56;;;;;;;4.30;2.07;;;;;;;7.87;76.49;99953.13;124503;1098;104498;-72
2020/12/23 04:53:24;;;;;;;4.63;2.27;;;;;;;7.85;76.11;99966.58;124465;1098;104512;-72
2020/12/23 04:55:53;;;;;;;5.15;1.90;;;;;;;7.83;76.30;99963.22;124522;1098;104522;-74
2020/12/23 04:58:21;;;;;;;3.33;1.90;;;;;;;7.77;75.64;99974.39;124504;1099;104520;-73
2020/12/23 05:00:49;;;;;;;3.27;1.50;;;;;;;7.75;75.68;99973.70;124491;1098;104958;-73
2020/12/23 05:03:17;;;;;;;3.37;1.80;;;;;;;7.71;75.27;99972.31;124479;1098;104518;-73
2020/12/23 05:05:45;;;;;;;3.87;1.70;;;;;;;7.67;75.71;99984.20;124527;1098;104599;-73
2020/12/23 05:08:13;;;;;;;3.43;1.70;;;;;;;7.63;75.51;99982.81;124482;1098;104654;-73
2020/12/23 05:10:42;;;;;;;3.00;1.75;;;;;;;7.59;75.71;99981.42;124432;1098;104603;-73
2020/12/23 05:13:12;;;;;;;4.70;1.60;;;;;;;7.59;76.49;99986.73;124524;1093;104506;-76
2020/12/23 05:15:40;;;;;;;2.87;1.93;;;;;;;7.61;75.56;99992.73;124446;1098;104583;-76
2020/12/23 05:18:08;;;;;;;2.97;1.67;;;;;;;7.60;76.24;99999.88;124445;1098;104656;-76
2020/12/23 05:20:37;;;;;;;115.10;29.83;;;;;;;7.59;75.69;100007.97;124438;1098;104555;-76
2020/12/23 05:23:05;;;;;;;98.73;31.43;;;;;;;7.60;75.93;100004.31;124446;1093;104622;-75
2020/12/23 05:25:34;;;;;;;134.47;39.67;;;;;;;7.59;74.98;99998.17;124422;1098;105019;-75
2020/12/23 05:28:03;;;;;;;87.20;27.33;;;;;;;7.59;75.08;100006.14;124470;1098;104667;-75
2020/12/23 05:30:33;;;;;;;27.10;7.77;;;;;;;7.55;75.50;100007.41;124492;1098;104503;-76
2020/12/23 05:33:01;;;;;;;15.77;5.30;;;;;;;7.50;75.29;100011.45;124514;1098;104606;-74
2020/12/23 05:35:29;;;;;;;20.07;6.97;;;;;;;7.47;75.20;100016.06;124427;1098;104606;-74
2020/12/23 05:37:57;;;;;;;8.37;3.00;;;;;;;7.40;75.37;100012.28;124425;1098;104590;-74
2020/12/23 05:40:26;;;;;;;13.07;5.23;;;;;;;7.39;75.29;100007.97;124413;1098;104597;-74
2020/12/23 05:42:56;;;;;;;9.57;3.83;;;;;;;7.38;75.00;100010.75;124441;1098;104516;-75
2020/12/23 05:45:26;;;;;;;24.73;10.07;;;;;;;7.32;74.93;100011.31;124445;1098;104500;-73
2020/12/23 05:47:55;;;;;;;10.90;3.57;;;;;;;7.24;75.19;100014.66;124458;1098;104586;-74
2020/12/23 05:50:24;;;;;;;7.75;2.80;;;;;;;7.21;74.71;100017.57;124420;1098;104617;-73
2020/12/23 05:52:55;;;;;;;10.77;3.47;;;;;;;7.20;75.47;100026.52;124381;1098;104576;-74
2020/12/23 05:55:23;;;;;;;13.27;5.03;;;;;;;7.20;75.66;100021.22;124420;1098;104638;-73
2020/12/23 05:57:53;;;;;;;71.17;41.00;;;;;;;7.17;74.78;100027.62;124475;1098;104637;-72
2020/12/23 06:00:20;;;;;;;24.07;10.60;;;;;;;7.14;74.11;100033.22;124416;1098;104612;-73
2020/12/23 06:03:10;;;;;;;34.93;17.93;;;;;;;7.13;74.81;100036.83;124561;1098;104496;-73
2020/12/23 06:05:44;;;;;;;13.23;5.10;;;;;;;7.09;74.56;100035.42;124668;1098;104564;-72
2020/12/23 06:08:13;;;;;;;8.47;2.60;;;;;;;7.08;74.39;100034.59;124545;1098;104503;-73
2020/12/23 06:10:44;;;;;;;5.85;2.60;;;;;;;7.03;74.83;100023.55;124461;1099;104606;-72
2020/12/23 06:13:13;;;;;;;4.30;2.20;;;;;;;7.01;74.60;100020.19;124390;1098;104637;-76
2020/12/23 06:15:42;;;;;;;4.80;2.33;;;;;;;6.99;74.37;100023.96;124455;1098;104926;-75
2020/12/23 06:18:18;;;;;;;5.10;1.90;;;;;;;6.97;74.80;100026.75;124458;1098;104676;-75
2020/12/23 06:20:46;;;;;;;29.67;12.77;;;;;;;6.96;75.22;100027.70;124444;1098;104544;-75
2020/12/23 06:23:27;;;;;;;10.10;2.90;;;;;;;6.95;73.78;100023.39;124387;1098;104497;-74
2020/12/23 06:25:54;;;;;;;38.40;17.47;;;;;;;6.94;75.09;100023.52;124562;1093;104513;-73
2020/12/23 06:28:24;;;;;;;99.75;48.10;;;;;;;6.94;75.29;100016.39;124485;1098;104651;-73
2020/12/23 06:30:53;;;;;;;31.33;10.83;;;;;;;6.95;73.84;100033.14;124434;1098;104606;-72
2020/12/23 06:33:22;;;;;;;107.95;53.05;;;;;;;6.94;74.19;100029.66;124464;1099;104573;-72
2020/12/23 06:35:50;;;;;;;22.50;7.73;;;;;;;6.93;73.76;100024.48;124484;1098;104570;-74
2020/12/23 06:38:22;;;;;;;16.57;4.63;;;;;;;6.90;74.16;100016.81;124464;1098;104643;-74
2020/12/23 06:40:59;;;;;;;36.00;18.67;;;;;;;6.82;75.22;100025.44;124476;1098;104516;-75
2020/12/23 06:43:55;;;;;;;12.47;4.90;;;;;;;6.77;74.11;100032.95;124556;1098;104532;-75
2020/12/23 06:46:23;;;;;;;9.03;3.20;;;;;;;6.70;74.15;100030.01;124536;1098;104602;-74
2020/12/23 06:48:51;;;;;;;7.60;3.43;;;;;;;6.66;75.30;100034.73;124480;1098;104745;-73
2020/12/23 06:51:40;;;;;;;9.80;3.10;;;;;;;6.61;74.11;100034.28;124412;1098;104624;-78
2020/12/23 06:54:08;;;;;;;13.50;5.60;;;;;;;6.56;74.22;100035.66;124462;1098;104522;-74
2020/12/23 06:56:46;;;;;;;44.93;25.33;;;;;;;6.51;75.18;100048.48;124378;1098;105020;-71
2020/12/23 06:59:49;;;;;;;86.70;47.00;;;;;;;6.45;74.35;100049.84;124355;1099;104596;-71
2020/12/23 07:02:18;;;;;;;125.83;64.13;;;;;;;6.36;75.30;100056.76;123854;1102;104674;-71
2020/12/23 07:04:49;;;;;;;81.93;42.10;;;;;;;6.35;74.80;100048.94;124307;1099;104522;-70
2020/12/23 07:07:33;;;;;;;37.97;14.27;;;;;;;6.33;75.41;100050.87;124444;1099;104602;-71
2020/12/23 07:10:09;;;;;;;19.40;7.13;;;;;;;6.32;74.53;100065.95;124331;1099;104750;-71
2020/12/23 07:12:41;;;;;;;14.07;6.23;;;;;;;6.33;74.00;100085.33;124413;1099;104506;-71
2020/12/23 07:15:12;;;;;;;10.25;4.45;;;;;;;6.32;74.55;100086.31;124425;1099;104523;-71
2020/12/23 07:17:44;;;;;;;14.60;6.37;;;;;;;6.24;74.34;100085.14;124434;1099;104609;-71
2020/12/23 07:20:14;;;;;;;18.53;10.10;;;;;;;6.16;74.53;100082.31;124475;1098;104781;-72
2020/12/23 07:22:48;;;;;;;14.93;7.20;;;;;;;6.13;75.43;100087.02;124459;1098;104490;-71
2020/12/23 07:25:21;;;;;;;9.23;4.17;;;;;;;6.05;74.87;100079.72;124427;1098;104522;-71
2020/12/23 07:27:52;;;;;;;11.20;5.25;;;;;;;6.02;75.17;100086.09;124429;1098;104634;-72
2020/12/23 07:30:20;;;;;;;12.23;4.80;;;;;;;6.00;75.11;100089.84;124465;1099;104920;-73
2020/12/23 07:33:00;;;;;;;9.03;4.60;;;;;;;6.00;74.79;100089.84;124398;1098;104634;-71
2020/12/23 07:35:28;;;;;;;21.33;14.60;;;;;;;5.97;74.31;100088.30;124439;1099;104558;-71
2020/12/23 07:38:01;;;;;;;25.07;15.67;;;;;;;5.94;74.56;100085.03;124399;1098;104997;-72
2020/12/23 07:40:31;;;;;;;13.80;7.87;;;;;;;5.92;75.01;100089.62;124456;1098;104640;-72
2020/12/23 07:43:00;;;;;;;15.07;10.27;;;;;;;5.92;74.46;100093.09;124446;1099;104676;-72
2020/12/23 07:45:30;;;;;;;17.00;13.03;;;;;;;5.88;74.02;100092.50;124479;1098;104519;-73
2020/12/23 07:48:00;;;;;;;22.27;15.27;;;;;;;5.89;74.02;100096.84;124542;1093;104608;-73
2020/12/23 07:50:30;;;;;;;19.27;13.53;;;;;;;5.87;74.45;100096.14;124626;1093;104539;-74
2020/12/23 07:53:10;;;;;;;13.95;10.50;;;;;;;5.86;74.63;100094.44;124567;1093;104909;-70
2020/12/23 07:55:39;;;;;;;13.40;6.73;;;;;;;5.85;74.42;100099.86;124312;1098;104516;-70
2020/12/23 07:58:08;;;;;;;12.83;7.37;;;;;;;5.83;74.57;100091.20;124451;1093;104526;-70
2020/12/23 08:00:37;;;;;;;14.57;9.50;;;;;;;5.83;73.84;100097.36;124354;1098;104569;-70
2020/12/23 08:03:06;;;;;;;8.77;4.87;;;;;;;5.83;74.61;100104.44;124338;1098;105038;-71
2020/12/23 08:05:34;;;;;;;7.60;3.40;;;;;;;5.81;74.17;100096.65;124337;1098;104598;-71
2020/12/23 08:08:02;;;;;;;14.70;10.10;;;;;;;5.80;73.67;100097.59;124434;1098;104654;-70
2020/12/23 08:10:30;;;;;;;9.33;5.17;;;;;;;5.79;74.67;100093.26;124464;1098;104663;-74
2020/12/23 08:13:00;;;;;;;11.27;9.13;;;;;;;5.78;73.78;100098.70;125632;1093;104529;-72
2020/12/23 08:15:28;;;;;;;10.30;4.47;;;;;;;5.75;74.24;100097.13;124851;1093;104509;-73
2020/12/23 08:18:01;;;;;;;9.70;6.30;;;;;;;5.74;74.25;100102.58;124505;1093;104590;-72
2020/12/23 08:20:29;;;;;;;12.33;5.40;;;;;;;5.74;74.35;100103.41;124492;1098;104587;-72
2020/12/23 08:22:59;;;;;;;12.90;8.27;;;;;;;5.76;73.98;100116.52;124456;1098;104621;-71
2020/12/23 08:25:28;;;;;;;8.10;5.95;;;;;;;5.79;73.76;100111.79;124397;1098;104608;-70
2020/12/23 08:27:58;;;;;;;14.83;9.20;;;;;;;5.82;74.28;100108.91;124207;1098;104523;-71
2020/12/23 08:30:27;;;;;;;15.40;9.50;;;;;;;5.88;73.87;100113.69;124431;1098;104650;-70
2020/12/23 08:33:01;;;;;;;10.77;7.17;;;;;;;5.93;73.89;100115.11;124364;1099;104567;-69
2020/12/23 08:35:30;;;;;;;21.20;13.30;;;;;;;5.93;74.51;100123.92;124318;1098;104503;-71
2020/12/23 08:37:58;;;;;;;13.10;8.40;;;;;;;5.95;74.49;100126.42;124318;1098;104528;-70
2020/12/23 08:40:26;;;;;;;8.53;4.97;;;;;;;5.96;74.61;100122.84;124405;1093;104695;-75
2020/12/23 08:42:57;;;;;;;7.20;4.10;;;;;;;6.01;73.96;100128.62;124422;1098;104582;-75
2020/12/23 08:45:29;;;;;;;6.73;3.57;;;;;;;6.02;74.24;100132.93;124543;1098;104541;-68
2020/12/23 08:47:58;;;;;;;6.90;3.70;;;;;;;6.04;73.93;100128.34;124460;1098;104574;-72
2020/12/23 08:50:27;;;;;;;7.40;4.13;;;;;;;6.06;73.80;100129.06;124508;1098;104605;-72
2020/12/23 08:52:56;;;;;;;7.90;4.43;;;;;;;6.06;73.61;100118.46;124532;1098;104566;-71
2020/12/23 08:55:26;;;;;;;19.40;12.53;;;;;;;6.06;74.38;100123.76;124283;1098;104514;-68
2020/12/23 08:58:07;;;;;;;14.10;8.50;;;;;;;6.11;73.19;100140.12;124284;1098;104525;-72
2020/12/23 09:00:35;;;;;;;14.87;8.83;;;;;;;6.15;73.92;100133.59;124522;1098;104589;-72
2020/12/23 09:03:03;;;;;;;8.20;5.20;;;;;;;6.17;73.80;100131.66;124575;1098;104568;-69
2020/12/23 09:05:34;;;;;;;9.23;5.50;;;;;;;6.21;73.70;100133.08;124227;1098;104542;-69
2020/12/23 09:08:07;;;;;;;7.90;4.62;;;;;;;6.25;74.49;100134.50;124349;1098;104529;-71
2020/12/23 09:10:37;;;;;;;9.30;5.10;;;;;;;6.28;74.22;100133.42;124304;1098;104631;-72
2020/12/23 09:13:06;;;;;;;14.30;7.20;;;;;;;6.35;73.72;100131.09;124453;1093;104660;-73
2020/12/23 09:15:34;;;;;;;8.77;4.83;;;;;;;6.39;74.19;100128.07;124420;1098;104503;-70
2020/12/23 09:18:13;;;;;;;16.60;9.63;;;;;;;6.45;73.23;100130.20;124292;1099;104500;-71
2020/12/23 09:20:42;;;;;;;13.17;6.83;;;;;;;6.49;74.14;100128.13;124316;1098;104618;-71
2020/12/23 09:23:11;;;;;;;15.63;6.67;;;;;;;6.54;73.87;100133.86;124387;1098;104619;-71
2020/12/23 09:25:39;;;;;;;8.33;4.50;;;;;;;6.56;72.86;100137.22;124505;1099;104528;-72
2020/12/23 09:28:09;;;;;;;11.10;5.20;;;;;;;6.58;73.66;100135.30;124472;1093;104539;-70
2020/12/23 09:30:39;;;;;;;10.30;5.23;;;;;;;6.64;73.51;100142.73;124415;1093;104538;-72
2020/12/23 09:33:10;;;;;;;10.03;5.53;;;;;;;6.68;73.93;100135.36;124243;1099;104967;-71
2020/12/23 09:35:39;;;;;;;32.87;15.73;;;;;;;6.69;73.71;100129.07;124408;1098;104517;-70
2020/12/23 09:38:09;;;;;;;197.60;118.03;;;;;;;6.72;73.92;100126.17;124694;1098;104602;-71
2020/12/23 09:40:39;;;;;;;128.00;73.05;;;;;;;6.73;73.64;100125.19;124293;1098;104538;-70
2020/12/23 09:43:12;;;;;;;181.27;111.17;;;;;;;6.74;73.51;100126.05;124330;1098;104605;-69
2020/12/23 09:45:42;;;;;;;54.20;24.07;;;;;;;6.77;73.62;100128.42;124235;1098;104513;-69
2020/12/23 09:48:10;;;;;;;137.83;85.90;;;;;;;6.80;73.76;100128.16;124286;1098;104497;-68
2020/12/23 09:50:38;;;;;;;371.25;222.80;;;;;;;6.83;73.75;100109.31;124345;1098;104679;-69
2020/12/23 09:53:07;;;;;;;263.53;158.80;;;;;;;6.87;73.42;100121.34;124302;1098;104724;-69
2020/12/23 09:55:35;;;;;;;82.67;38.20;;;;;;;6.92;72.83;100115.66;124320;1098;104531;-70
2020/12/23 09:58:03;;;;;;;47.37;25.07;;;;;;;6.95;73.36;100116.23;124332;1098;104606;-69
2020/12/23 10:00:31;;;;;;;34.23;15.63;;;;;;;6.97;72.97;100122.23;124399;1098;104586;-70
2020/12/23 10:02:59;;;;;;;22.73;10.07;;;;;;;7.02;72.86;100117.36;124282;1099;104592;-69
2020/12/23 10:05:27;;;;;;;20.65;10.20;;;;;;;7.07;73.02;100107.19;124309;1094;104573;-69
2020/12/23 10:07:55;;;;;;;14.43;7.17;;;;;;;7.12;73.52;100105.95;124311;1098;105179;-69
2020/12/23 10:10:23;;;;;;;16.85;7.50;;;;;;;7.16;72.88;100105.56;124351;1098;104641;-69
2020/12/23 10:12:51;;;;;;;41.25;22.80;;;;;;;7.21;73.16;100116.59;124281;1098;104529;-70
2020/12/23 10:15:19;;;;;;;19.90;10.17;;;;;;;7.23;73.19;100108.50;124288;1099;104605;-70
2020/12/23 10:17:47;;;;;;;49.47;34.67;;;;;;;7.27;73.11;100115.21;124344;1098;104529;-69
2020/12/23 10:20:15;;;;;;;28.13;18.77;;;;;;;7.30;72.73;100109.64;124338;1098;104672;-70
2020/12/23 10:22:43;;;;;;;35.47;23.43;;;;;;;7.31;72.09;100116.62;124317;1098;104602;-69
2020/12/23 10:25:12;;;;;;;39.50;28.40;;;;;;;7.32;72.89;100106.86;124327;1098;104526;-69
2020/12/23 10:27:40;;;;;;;18.73;10.30;;;;;;;7.29;72.55;100107.95;124286;1098;104516;-69
2020/12/23 10:30:09;;;;;;;19.57;12.90;;;;;;;7.29;71.82;100113.26;124432;1098;104679;-70
2020/12/23 10:32:38;;;;;;;23.43;13.67;;;;;;;7.28;72.50;100100.98;124325;1098;104613;-69
2020/12/23 10:35:07;;;;;;;31.03;16.80;;;;;;;7.32;72.42;100094.42;124458;1093;104656;-69
2020/12/23 10:37:36;;;;;;;16.70;8.97;;;;;;;7.35;72.33;100094.16;124433;1098;104647;-69
2020/12/23 10:40:04;;;;;;;19.80;12.63;;;;;;;7.42;73.13;100089.97;124438;1098;104653;-69
2020/12/23 10:42:32;;;;;;;20.07;11.27;;;;;;;7.46;72.27;100091.36;124328;1098;104681;-69
2020/12/23 10:45:00;;;;;;;26.50;12.00;;;;;;;7.50;72.77;100099.06;124297;1098;104643;-69
2020/12/23 10:47:28;;;;;;;55.93;23.23;;;;;;;7.52;72.29;100092.63;124276;1098;104602;-69
2020/12/23 10:49:56;;;;;;;38.93;17.73;;;;;;;7.54;72.45;100095.98;124350;1098;104769;-70
2020/12/23 10:52:24;;;;;;;35.17;12.07;;;;;;;7.58;72.19;100091.25;124401;1098;104618;-70
2020/12/23 10:54:53;;;;;;;28.90;12.57;;;;;;;7.63;72.44;100094.34;124332;1098;104647;-69
2020/12/23 10:57:21;;;;;;;16.75;6.50;;;;;;;7.66;71.43;100083.45;124176;1098;104627;-69
2020/12/23 10:59:49;;;;;;;12.60;5.40;;;;;;;7.66;72.34;100080.80;125022;1098;104650;-69
2020/12/23 11:02:17;;;;;;;12.47;6.10;;;;;;;7.67;70.95;100079.80;124267;1099;104533;-68
2020/12/23 11:04:46;;;;;;;12.23;5.07;;;;;;;7.66;71.03;100086.94;124429;1098;104516;-70
2020/12/23 11:07:14;;;;;;;17.35;8.45;;;;;;;7.64;71.47;100077.41;124397;1098;104605;-70
2020/12/23 11:09:42;;;;;;;14.57;5.10;;;;;;;7.63;71.50;100076.58;124489;1093;104605;-70
2020/12/23 11:12:10;;;;;;;19.35;11.20;;;;;;;7.60;72.39;100074.22;124354;1093;105022;-69
2020/12/23 11:14:38;;;;;;;24.20;15.77;;;;;;;7.59;71.63;100077.00;124408;1092;104519;-69
2020/12/23 11:17:06;;;;;;;17.30;7.83;;;;;;;7.55;71.06;100075.61;124509;1092;104611;-70
2020/12/23 11:19:34;;;;;;;12.17;7.43;;;;;;;7.46;70.77;100083.40;124612;1093;105016;-69
2020/12/23 11:22:02;;;;;;;11.07;6.53;;;;;;;7.40;71.47;100089.27;124307;1099;104563;-69
2020/12/23 11:24:30;;;;;;;9.23;4.00;;;;;;;7.33;70.80;100082.81;124304;1098;104513;-71